createdAt,value
2019-01-09T00:04:09.008Z,94.54
2019-01-09T00:06:57.149Z,92.86
2019-01-09T00:09:45.340Z,93.93
2019-01-09T00:12:33.502Z,92.86
2019-01-09T00:15:21.642Z,90.88
2019-01-09T00:18:09.897Z,90.92
2019-01-09T00:20:39.009Z,90.05
2019-01-09T00:23:47.568Z,87.71
2019-01-09T00:26:35.724Z,88.11
2019-01-09T00:29:05.179Z,87.25
2019-01-09T00:31:53.303Z,87.73
2019-01-09T00:34:41.540Z,87.08
2019-01-09T00:37:29.598Z,86.76
2019-01-09T00:40:17.813Z,86.50
2019-01-09T00:42:46.956Z,85.82
2019-01-09T00:45:35.098Z,86.35
2019-01-09T00:48:04.529Z,85.79
2019-01-09T00:50:33.668Z,83.86
2019-01-09T00:53:03.100Z,82.89
2019-01-09T00:55:32.535Z,83.82
2019-01-09T00:58:20.671Z,81.56
2019-01-09T01:00:49.800Z,81.61
2019-01-09T01:03:57.098Z,81.57
2019-01-09T01:07:04.328Z,82.58
2019-01-09T01:10:11.615Z,81.35
2019-01-09T01:13:08.558Z,83.32
2019-01-09T01:16:15.848Z,83.22
2019-01-09T01:19:28.471Z,83.13
2019-01-09T01:22:22.200Z,83.05
2019-01-09T01:25:29.485Z,83.35
2019-01-09T01:28:36.802Z,84.18
2019-01-09T01:31:36.077Z,84.41
2019-01-09T01:34:43.347Z,86.72
2019-01-09T01:37:38.000Z,86.44
2019-01-09T01:40:45.275Z,87.67
2019-01-09T01:43:52.534Z,86.59
2019-01-09T01:46:59.752Z,86.49
2019-01-09T01:49:53.594Z,86.79
2019-01-09T01:53:00.823Z,86.07
2019-01-09T01:56:08.082Z,85.12
2019-01-09T01:59:15.334Z,85.93
2019-01-09T02:02:22.576Z,85.79
2019-01-09T02:05:29.835Z,85.02
2019-01-09T02:08:22.384Z,85.24
2019-01-09T02:11:29.646Z,84.36
2019-01-09T02:14:36.902Z,84.57
2019-01-09T02:17:44.139Z,83.58
2019-01-09T02:20:51.591Z,84.27
2019-01-09T02:23:45.032Z,83.45
2019-01-09T02:30:11.960Z,84.16
2019-01-09T02:33:00.090Z,82.31
2019-01-09T02:35:48.295Z,82.52
2019-01-09T02:38:36.387Z,82.92
2019-01-09T02:43:59.095Z,83.28
2019-01-09T02:46:47.213Z,83.60
2019-01-09T02:49:35.374Z,83.67
2019-01-09T02:52:04.607Z,84.88
2019-01-09T02:54:33.708Z,84.42
2019-01-09T02:57:21.753Z,85.50
2019-01-09T03:00:09.915Z,85.99
2019-01-09T03:05:46.148Z,86.21
2019-01-09T03:08:34.276Z,87.56
2019-01-09T03:11:03.411Z,87.72
2019-01-09T03:13:51.506Z,88.91
2019-01-09T03:16:20.608Z,89.50
2019-01-09T03:19:08.780Z,89.69
2019-01-09T03:21:56.869Z,90.95
2019-01-09T03:24:45.065Z,91.96
2019-01-09T03:30:21.322Z,92.12
2019-01-09T03:33:09.546Z,92.01
2019-01-09T03:35:57.618Z,91.43
2019-01-09T03:38:45.704Z,92.19
2019-01-09T03:41:33.862Z,92.12
2019-01-09T03:44:03.340Z,93.35
2019-01-09T03:46:51.468Z,91.58
2019-01-09T03:49:39.627Z,90.24
2019-01-09T03:52:08.774Z,91.08
2019-01-09T03:54:56.930Z,90.67
2019-01-09T03:57:45.112Z,91.33
2019-01-09T04:00:33.221Z,91.28
2019-01-09T04:06:15.333Z,91.07
2019-01-09T04:11:53.563Z,100.00
2019-01-09T04:17:29.854Z,100.00
2019-01-09T04:20:17.971Z,98.01
2019-01-09T04:23:05.990Z,97.65
2019-01-09T04:25:54.124Z,97.63
2019-01-09T04:28:42.281Z,97.18
2019-01-09T04:31:30.494Z,97.82
2019-01-09T04:37:25.708Z,97.89
2019-01-09T04:39:55.110Z,96.86
2019-01-09T04:42:43.310Z,96.12
2019-01-09T04:45:12.592Z,95.72
2019-01-09T04:48:01.079Z,95.22
2019-01-09T04:50:49.056Z,95.71
2019-01-09T04:53:37.222Z,94.94
2019-01-09T04:56:25.369Z,94.92
2019-01-09T04:59:13.517Z,94.32
2019-01-09T05:02:01.551Z,94.24
2019-01-09T05:07:37.787Z,95.07
2019-01-09T05:10:26.215Z,95.36
2019-01-09T05:13:14.383Z,94.91
2019-01-09T05:16:02.509Z,95.45
2019-01-09T05:18:50.940Z,96.57
2019-01-09T05:21:39.120Z,97.35
2019-01-09T05:24:27.255Z,98.99
2019-01-09T05:27:15.430Z,100.00
2019-01-09T05:30:03.550Z,100.00
2019-01-09T05:32:51.703Z,100.00
2019-01-09T05:35:39.830Z,100.00
2019-01-09T05:38:27.916Z,100.00
2019-01-09T19:49:00.635Z,100.00
2019-01-09T19:54:58.031Z,100.00
2019-01-09T19:57:40.669Z,100.00
2019-01-09T20:01:04.674Z,100.00
2019-01-09T20:07:37.209Z,100.00
2019-01-09T20:14:21.818Z,100.00
2019-01-09T20:22:24.940Z,100.00
2019-01-09T20:27:35.820Z,100.00
2019-01-09T20:30:37.805Z,100.00
2019-01-09T20:33:47.863Z,100.00
2019-01-09T20:36:36.634Z,100.00
2019-01-09T20:39:27.012Z,100.00
2019-01-09T20:42:15.714Z,100.00
2019-01-09T20:50:56.267Z,100.00
2019-01-09T20:53:44.752Z,100.00
2019-01-09T21:00:09.119Z,100.00
2019-01-09T21:04:02.206Z,100.00
2019-01-09T21:11:15.723Z,100.00
2019-01-09T21:17:27.195Z,100.00
2019-01-09T21:23:26.092Z,100.00
2019-01-09T21:26:07.933Z,100.00
2019-01-09T21:29:09.910Z,100.00
2019-01-09T21:31:51.304Z,100.00
2019-01-09T21:47:19.606Z,100.00
2019-01-09T21:50:00.508Z,100.00
2019-01-09T22:08:23.258Z,100.00
2019-01-09T22:11:04.100Z,100.00
2019-01-09T22:16:33.760Z,100.00
2019-01-09T22:19:12.655Z,100.00
2019-01-09T22:22:01.053Z,100.00
2019-01-09T22:24:49.845Z,100.00
2019-01-09T22:33:50.464Z,100.00
2019-01-09T22:36:38.865Z,100.00
2019-01-09T22:47:21.783Z,100.00
2019-01-09T22:54:01.792Z,100.00
2019-01-09T23:48:53.664Z,100.00
2019-01-09T23:51:42.093Z,100.00
2019-01-09T23:54:30.541Z,100.00
2019-01-09T23:57:18.969Z,100.00
